createdAt,value
2022-10-15T00:00:06.862Z,94.01
2022-10-15T00:02:33.273Z,94.03
2022-10-15T00:04:59.763Z,93.81
2022-10-15T00:07:26.577Z,93.79
2022-10-15T00:09:53.160Z,93.84
2022-10-15T00:12:19.517Z,93.81
2022-10-15T00:14:45.904Z,94.00
2022-10-15T00:17:12.289Z,94.08
2022-10-15T00:19:38.664Z,94.18
2022-10-15T00:22:05.051Z,93.92
2022-10-15T00:24:31.466Z,93.56
2022-10-15T00:26:57.904Z,93.39
2022-10-15T00:29:24.309Z,93.91
2022-10-15T00:31:50.701Z,94.20
2022-10-15T00:34:17.062Z,93.66
2022-10-15T00:36:43.492Z,94.50
2022-10-15T00:39:10.602Z,93.82
2022-10-15T00:41:39.982Z,94.33
2022-10-15T00:44:21.693Z,93.70
2022-10-15T00:47:01.084Z,93.88
2022-10-15T00:49:30.768Z,94.90
2022-10-15T00:51:59.328Z,94.62
2022-10-15T00:54:27.579Z,94.19
2022-10-15T00:56:55.229Z,94.09
2022-10-15T00:59:24.151Z,94.15
2022-10-15T01:01:50.658Z,94.46
2022-10-15T01:04:18.936Z,94.70
2022-10-15T01:06:45.929Z,94.49
2022-10-15T01:09:12.415Z,94.38
2022-10-15T01:11:38.812Z,95.14
2022-10-15T01:14:25.452Z,94.79
2022-10-15T01:16:54.638Z,94.99
2022-10-15T01:19:40.984Z,95.02
2022-10-15T01:22:11.003Z,94.77
2022-10-15T01:25:03.577Z,94.68
2022-10-15T01:27:38.696Z,95.25
2022-10-15T01:30:12.205Z,94.50
2022-10-15T01:32:43.639Z,94.87
2022-10-15T01:35:20.840Z,94.21
2022-10-15T01:38:03.250Z,95.00
2022-10-15T01:40:35.972Z,94.51
2022-10-15T01:43:09.509Z,94.59
2022-10-15T01:45:57.227Z,95.37
2022-10-15T01:48:26.289Z,94.84
2022-10-15T01:50:54.436Z,95.53
2022-10-15T01:53:26.588Z,94.86
2022-10-15T01:56:02.456Z,95.98
2022-10-15T01:58:29.823Z,95.68
2022-10-15T02:00:57.379Z,95.65
2022-10-15T02:03:24.393Z,94.84
2022-10-15T02:05:55.604Z,94.92
2022-10-15T02:08:45.656Z,95.07
2022-10-15T02:11:14.539Z,95.10
2022-10-15T02:13:59.598Z,95.18
2022-10-15T02:16:41.227Z,95.91
2022-10-15T02:19:26.570Z,95.44
2022-10-15T02:22:06.462Z,95.34
2022-10-15T02:24:35.469Z,95.05
2022-10-15T02:27:03.533Z,95.49
2022-10-15T02:29:32.417Z,95.62
2022-10-15T02:32:01.011Z,96.40
2022-10-15T02:34:29.402Z,96.02
2022-10-15T02:36:58.110Z,95.31
2022-10-15T02:39:24.762Z,95.71
2022-10-15T02:41:52.821Z,94.97
2022-10-15T02:44:19.507Z,95.34
2022-10-15T02:46:45.914Z,96.21
2022-10-15T02:49:12.319Z,95.95
2022-10-15T02:51:38.777Z,96.16
2022-10-15T02:54:05.985Z,96.27
2022-10-15T02:56:32.440Z,95.81
2022-10-15T02:58:58.811Z,96.56
2022-10-15T03:01:25.336Z,95.61
2022-10-15T03:03:51.836Z,95.55
2022-10-15T03:06:18.222Z,96.43
2022-10-15T03:08:44.641Z,96.51
2022-10-15T03:11:11.846Z,96.18
2022-10-15T03:13:38.941Z,97.06
2022-10-15T03:16:06.291Z,96.96
2022-10-15T03:18:36.749Z,97.38
2022-10-15T03:21:06.497Z,96.85
2022-10-15T03:26:00.217Z,96.92
2022-10-15T03:28:26.744Z,96.91
2022-10-15T03:30:53.126Z,97.12
2022-10-15T03:33:21.863Z,96.63
2022-10-15T03:35:50.890Z,96.81
2022-10-15T03:38:17.261Z,97.59
2022-10-15T03:40:45.211Z,97.14
2022-10-15T03:43:11.598Z,96.85
2022-10-15T03:45:37.975Z,97.28
2022-10-15T03:48:04.606Z,96.57
2022-10-15T03:50:31.093Z,96.75
2022-10-15T03:52:57.540Z,96.97
2022-10-15T03:55:23.907Z,97.26
2022-10-15T03:57:50.288Z,96.73
2022-10-15T04:00:16.753Z,97.46
2022-10-15T04:02:43.124Z,97.27
2022-10-15T04:05:09.511Z,96.94
2022-10-15T04:07:35.972Z,97.16
2022-10-15T04:10:02.394Z,97.16
2022-10-15T04:12:28.822Z,97.81
2022-10-15T04:14:55.210Z,97.61
2022-10-15T04:17:21.644Z,97.39
2022-10-15T04:19:48.000Z,97.73
2022-10-15T04:22:14.389Z,97.46
2022-10-15T04:24:40.771Z,99.04
2022-10-15T04:27:07.666Z,99.01
2022-10-15T04:29:34.138Z,99.43
2022-10-15T04:32:00.537Z,99.56
2022-10-15T04:34:27.254Z,99.60
2022-10-15T04:36:53.626Z,99.01
2022-10-15T04:39:20.093Z,98.98
2022-10-15T04:41:46.477Z,98.70
2022-10-15T04:44:12.903Z,98.97
2022-10-15T04:46:39.282Z,99.09
2022-10-15T04:49:05.687Z,99.52
2022-10-15T04:51:32.074Z,99.57
2022-10-15T04:53:58.438Z,99.61
2022-10-15T04:56:24.804Z,99.03
2022-10-15T04:58:51.410Z,99.07
2022-10-15T05:01:19.639Z,98.81
2022-10-15T05:03:47.076Z,98.83
2022-10-15T05:06:15.556Z,98.93
2022-10-15T05:08:42.465Z,98.76
2022-10-15T05:11:14.048Z,98.64
2022-10-15T05:13:40.684Z,98.91
2022-10-15T05:16:10.187Z,100.00
2022-10-15T05:18:36.570Z,100.00
2022-10-15T05:21:02.989Z,100.00
2022-10-15T05:23:29.363Z,100.00
2022-10-15T05:25:58.932Z,100.00
2022-10-15T05:28:25.335Z,100.00
2022-10-15T05:30:51.737Z,99.87
2022-10-15T05:33:18.102Z,99.46
2022-10-15T05:35:44.520Z,99.66
2022-10-15T05:38:10.943Z,99.86
2022-10-15T05:40:37.352Z,100.00
2022-10-15T05:43:03.957Z,100.00
2022-10-15T05:45:30.318Z,100.00
2022-10-15T05:47:56.752Z,100.00
2022-10-15T05:50:23.435Z,100.00
2022-10-15T05:52:49.812Z,100.00
2022-10-15T05:55:16.375Z,100.00
2022-10-15T05:57:42.721Z,100.00
2022-10-15T06:00:09.346Z,100.00
2022-10-15T06:02:35.828Z,100.00
2022-10-15T06:05:02.280Z,100.00
2022-10-15T06:07:29.117Z,100.00
2022-10-15T06:09:55.559Z,100.00
2022-10-15T06:12:21.926Z,100.00
2022-10-15T06:14:48.289Z,100.00
2022-10-15T06:17:14.674Z,100.00
2022-10-15T06:19:41.116Z,100.00
2022-10-15T06:22:07.556Z,100.00
2022-10-15T06:24:34.045Z,100.00
2022-10-15T06:27:00.466Z,100.00
2022-10-15T06:29:26.849Z,100.00
2022-10-15T06:31:53.265Z,100.00
2022-10-15T06:34:19.659Z,100.00
2022-10-15T06:36:46.093Z,100.00
2022-10-15T06:39:12.467Z,100.00
2022-10-15T06:41:38.816Z,100.00
2022-10-15T06:44:05.203Z,100.00
2022-10-15T06:46:31.569Z,100.00
2022-10-15T06:48:57.964Z,100.00
2022-10-15T06:51:24.335Z,100.00
2022-10-15T06:53:50.766Z,100.00
2022-10-15T06:56:17.288Z,100.00
2022-10-15T06:58:43.808Z,100.00
2022-10-15T07:01:10.410Z,100.00
2022-10-15T07:03:39.023Z,100.00
2022-10-15T07:06:06.699Z,100.00
2022-10-15T07:08:33.320Z,100.00
2022-10-15T07:11:03.760Z,100.00
2022-10-15T07:13:30.737Z,100.00
2022-10-15T07:15:57.122Z,100.00
2022-10-15T07:18:23.508Z,100.00
2022-10-15T07:20:49.946Z,100.00
2022-10-15T07:23:16.311Z,100.00
2022-10-15T07:25:42.667Z,100.00
2022-10-15T07:28:09.093Z,100.00
2022-10-15T07:30:35.532Z,100.00
2022-10-15T07:33:02.070Z,100.00
2022-10-15T07:35:28.681Z,100.00
2022-10-15T07:37:55.313Z,100.00
2022-10-15T07:40:21.848Z,100.00
2022-10-15T07:42:55.322Z,100.00
2022-10-15T07:45:22.126Z,100.00
2022-10-15T07:47:48.534Z,100.00
2022-10-15T07:50:15.148Z,100.00
2022-10-15T07:52:41.529Z,100.00
2022-10-15T07:55:08.261Z,100.00
2022-10-15T07:57:34.657Z,99.82
2022-10-15T08:00:01.002Z,99.86
2022-10-15T08:02:27.445Z,100.00
2022-10-15T08:04:53.843Z,100.00
2022-10-15T08:07:20.282Z,99.50
2022-10-15T08:12:17.982Z,98.47
2022-10-15T08:14:44.428Z,97.73
2022-10-15T08:17:11.055Z,98.25
2022-10-15T08:19:37.412Z,97.65
2022-10-15T08:22:03.936Z,96.05
2022-10-15T08:24:30.689Z,95.24
2022-10-15T08:26:57.611Z,94.56
2022-10-15T08:29:24.207Z,94.57
2022-10-15T08:31:51.230Z,94.25
2022-10-15T08:34:17.629Z,93.86
2022-10-15T08:36:44.016Z,91.50
2022-10-15T08:39:10.445Z,90.67
2022-10-15T08:41:39.580Z,91.08
2022-10-15T08:44:07.037Z,89.44
2022-10-15T08:46:36.730Z,90.69
2022-10-15T08:49:03.662Z,89.29
2022-10-15T08:51:42.604Z,89.50
2022-10-15T08:54:13.354Z,89.25
2022-10-15T08:56:43.164Z,89.04
2022-10-15T08:59:15.520Z,89.68
2022-10-15T09:01:50.938Z,88.45
2022-10-15T09:04:20.481Z,89.36
2022-10-15T09:06:46.987Z,87.97
2022-10-15T09:09:16.445Z,87.44
2022-10-15T09:11:45.812Z,88.70
2022-10-15T09:14:15.618Z,87.17
2022-10-15T09:16:43.337Z,87.54
2022-10-15T09:19:18.131Z,86.98
2022-10-15T09:21:45.612Z,86.83
2022-10-15T09:24:13.216Z,87.08
2022-10-15T09:26:59.026Z,88.09
2022-10-15T09:29:31.590Z,86.31
2022-10-15T09:32:00.950Z,85.70
2022-10-15T09:34:30.033Z,85.30
2022-10-15T09:37:04.335Z,85.12
2022-10-15T09:39:36.752Z,84.44
2022-10-15T09:42:12.301Z,84.07
2022-10-15T09:44:40.324Z,84.41
2022-10-15T09:47:17.220Z,83.88
2022-10-15T09:49:43.647Z,83.26
2022-10-15T09:52:20.318Z,83.40
2022-10-15T09:54:49.853Z,83.21
2022-10-15T09:57:17.508Z,82.32
2022-10-15T09:59:54.198Z,81.60
2022-10-15T10:02:22.518Z,81.96
2022-10-15T10:04:49.368Z,81.74
2022-10-15T10:07:33.122Z,82.12
2022-10-15T10:10:05.527Z,81.40
2022-10-15T10:12:33.709Z,81.28
2022-10-15T10:15:02.617Z,81.07
2022-10-15T10:17:29.548Z,78.86
2022-10-15T10:20:04.801Z,79.22
2022-10-15T10:22:41.630Z,79.08
2022-10-15T10:25:28.936Z,78.75
2022-10-15T10:28:03.861Z,77.97
2022-10-15T10:30:34.341Z,78.02
2022-10-15T10:33:01.231Z,77.53
2022-10-15T10:35:33.522Z,77.14
2022-10-15T10:38:00.039Z,76.69
2022-10-15T10:40:30.558Z,76.52
2022-10-15T10:43:11.540Z,76.38
2022-10-15T10:45:38.012Z,76.30
2022-10-15T10:48:20.807Z,77.52
2022-10-15T10:50:47.644Z,76.44
2022-10-15T10:53:21.934Z,76.52
2022-10-15T10:55:49.132Z,76.57
2022-10-15T10:58:23.412Z,76.45
2022-10-15T11:00:53.450Z,75.88
2022-10-15T11:03:22.721Z,75.17
2022-10-15T11:05:50.919Z,74.59
2022-10-15T11:08:20.218Z,75.20
2022-10-15T11:10:59.890Z,75.83
2022-10-15T11:13:35.043Z,73.73
2022-10-15T11:16:07.562Z,74.74
2022-10-15T11:19:13.799Z,72.75
2022-10-15T11:22:04.937Z,72.31
2022-10-15T11:24:42.578Z,71.04
2022-10-15T11:27:35.190Z,73.01
2022-10-15T11:30:20.144Z,72.50
2022-10-15T11:33:18.986Z,72.08
2022-10-15T11:35:53.702Z,72.31
2022-10-15T11:38:26.178Z,72.74
2022-10-15T11:41:07.853Z,71.65
2022-10-15T11:43:51.302Z,71.00
2022-10-15T11:46:17.646Z,70.17
2022-10-15T11:49:04.275Z,69.08
2022-10-15T11:51:39.671Z,68.90
2022-10-15T11:54:14.589Z,68.97
2022-10-15T11:56:43.873Z,69.58
2022-10-15T11:59:16.051Z,70.17
2022-10-15T12:01:50.042Z,69.17
2022-10-15T12:04:20.199Z,69.72
2022-10-15T12:06:52.463Z,70.05
2022-10-15T12:09:25.326Z,68.12
2022-10-15T12:11:58.455Z,67.48
2022-10-15T12:14:27.294Z,67.65
2022-10-15T12:16:53.639Z,68.41
2022-10-15T12:19:21.906Z,68.64
2022-10-15T12:21:54.375Z,69.27
2022-10-15T12:24:47.371Z,68.96
2022-10-15T12:27:19.756Z,68.28
2022-10-15T12:29:50.964Z,69.22
2022-10-15T12:32:22.168Z,68.88
2022-10-15T12:34:54.358Z,68.61
2022-10-15T12:37:23.024Z,68.59
2022-10-15T12:39:54.903Z,69.26
2022-10-15T12:42:39.478Z,68.73
2022-10-15T12:45:08.082Z,68.68
2022-10-15T12:47:51.082Z,68.86
2022-10-15T12:50:18.946Z,69.50
2022-10-15T12:52:51.551Z,67.61
2022-10-15T12:55:23.269Z,67.14
2022-10-15T12:57:58.843Z,68.04
2022-10-15T13:00:28.475Z,67.29
2022-10-15T13:02:55.929Z,67.08
2022-10-15T13:05:30.223Z,68.62
2022-10-15T13:07:58.240Z,67.46
2022-10-15T13:10:28.146Z,68.06
2022-10-15T13:12:57.362Z,66.83
2022-10-15T13:15:25.345Z,66.61
2022-10-15T13:17:52.500Z,67.06
2022-10-15T13:20:27.989Z,66.29
2022-10-15T13:23:18.486Z,66.32
2022-10-15T13:26:03.977Z,64.20
2022-10-15T13:28:36.915Z,64.20
2022-10-15T13:31:05.482Z,63.38
2022-10-15T13:33:32.156Z,63.46
2022-10-15T13:36:05.035Z,63.40
2022-10-15T13:38:31.429Z,63.46
2022-10-15T13:40:57.834Z,62.96
2022-10-15T13:43:25.340Z,62.83
2022-10-15T13:45:55.768Z,63.49
2022-10-15T13:48:23.413Z,62.62
2022-10-15T13:51:00.199Z,63.25
2022-10-15T13:53:31.332Z,63.38
2022-10-15T13:55:58.857Z,64.00
2022-10-15T13:58:33.513Z,63.79
2022-10-15T14:01:01.120Z,64.20
2022-10-15T14:03:29.107Z,64.68
2022-10-15T14:05:56.459Z,64.94
2022-10-15T14:08:24.851Z,64.96
2022-10-15T14:10:52.865Z,65.75
2022-10-15T14:13:19.532Z,64.96
2022-10-15T14:15:52.756Z,65.92
2022-10-15T14:18:27.955Z,66.19
2022-10-15T14:20:54.433Z,66.40
2022-10-15T14:23:22.707Z,66.43
2022-10-15T14:25:59.881Z,66.67
2022-10-15T14:28:26.864Z,66.90
2022-10-15T14:30:53.537Z,66.63
2022-10-15T14:33:30.040Z,66.25
2022-10-15T14:36:07.374Z,66.36
2022-10-15T14:38:33.856Z,66.69
2022-10-15T14:41:06.339Z,66.80
2022-10-15T14:43:35.318Z,67.21
2022-10-15T14:46:03.456Z,67.24
2022-10-15T14:48:35.051Z,67.61
2022-10-15T14:51:04.208Z,68.18
2022-10-15T14:53:37.978Z,68.75
2022-10-15T14:56:07.853Z,68.35
2022-10-15T14:58:34.578Z,69.01
2022-10-15T15:01:02.991Z,68.89
2022-10-15T15:03:31.073Z,69.10
2022-10-15T15:05:57.824Z,69.76
2022-10-15T15:08:24.947Z,69.89
2022-10-15T15:10:52.771Z,69.96
2022-10-15T15:13:21.295Z,70.10
2022-10-15T15:15:47.744Z,70.57
2022-10-15T15:18:14.284Z,71.01
2022-10-15T15:20:41.636Z,71.34
2022-10-15T15:23:12.416Z,71.58
2022-10-15T15:25:39.986Z,71.51
2022-10-15T15:28:11.500Z,71.42
2022-10-15T15:30:40.035Z,71.56
2022-10-15T15:33:08.603Z,71.86
2022-10-15T15:35:50.963Z,72.10
2022-10-15T15:38:18.769Z,72.38
2022-10-15T15:40:45.144Z,72.36
2022-10-15T15:43:16.202Z,72.65
2022-10-15T15:45:43.174Z,73.06
2022-10-15T15:48:09.615Z,73.52
2022-10-15T15:50:36.120Z,73.93
2022-10-15T15:53:03.129Z,74.27
2022-10-15T15:55:29.633Z,74.26
2022-10-15T15:57:55.999Z,74.40
2022-10-15T16:00:22.409Z,74.62
2022-10-15T16:02:48.802Z,74.58
2022-10-15T16:05:16.448Z,74.92
2022-10-15T16:07:43.280Z,74.98
2022-10-15T16:10:11.945Z,75.77
2022-10-15T16:12:38.956Z,75.84
2022-10-15T16:15:07.883Z,75.95
2022-10-15T16:17:36.873Z,76.17
2022-10-15T16:20:04.280Z,76.41
2022-10-15T16:22:30.912Z,76.46
2022-10-15T16:24:57.291Z,77.26
2022-10-15T16:27:24.376Z,78.00
2022-10-15T16:29:51.008Z,78.10
2022-10-15T16:32:17.429Z,77.98
2022-10-15T16:34:43.840Z,77.70
2022-10-15T16:37:10.249Z,77.50
2022-10-15T16:39:36.706Z,77.82
2022-10-15T16:42:03.169Z,77.91
2022-10-15T16:44:29.542Z,77.88
2022-10-15T16:46:55.888Z,77.94
2022-10-15T16:49:22.304Z,78.01
2022-10-15T16:51:48.858Z,77.87
2022-10-15T16:54:15.721Z,77.98
2022-10-15T16:56:42.303Z,78.45
2022-10-15T16:59:08.880Z,78.39
2022-10-15T17:01:35.992Z,78.39
2022-10-15T17:04:02.466Z,78.56
2022-10-15T17:06:29.915Z,78.71
2022-10-15T17:09:00.237Z,78.63
2022-10-15T17:11:29.603Z,78.61
2022-10-15T17:13:57.490Z,79.12
2022-10-15T17:16:25.553Z,79.25
2022-10-15T17:21:25.696Z,79.65
2022-10-15T17:23:53.184Z,79.72
2022-10-15T17:26:20.811Z,79.58
2022-10-15T17:28:47.688Z,79.95
2022-10-15T17:31:16.048Z,79.88
2022-10-15T17:33:43.016Z,80.14
2022-10-15T17:36:10.713Z,80.72
2022-10-15T17:38:37.184Z,81.52
2022-10-15T17:41:06.361Z,81.56
2022-10-15T17:43:37.622Z,81.93
2022-10-15T17:46:17.111Z,81.85
2022-10-15T17:48:43.536Z,81.78
2022-10-15T17:51:11.090Z,81.87
2022-10-15T17:53:37.946Z,81.44
2022-10-15T17:56:12.235Z,81.81
2022-10-15T17:58:38.711Z,82.24
2022-10-15T18:01:05.197Z,82.17
2022-10-15T18:03:31.585Z,82.76
2022-10-15T18:05:57.942Z,83.02
2022-10-15T18:08:24.371Z,83.06
2022-10-15T18:10:52.739Z,83.53
2022-10-15T18:13:19.325Z,83.99
2022-10-15T18:15:49.347Z,83.86
2022-10-15T18:18:16.743Z,83.81
2022-10-15T18:20:44.273Z,83.78
2022-10-15T18:23:11.148Z,84.17
2022-10-15T18:25:37.683Z,84.23
2022-10-15T18:28:05.043Z,84.26
2022-10-15T18:30:31.466Z,84.55
2022-10-15T18:32:58.465Z,84.76
2022-10-15T18:35:25.482Z,84.81
2022-10-15T18:37:51.854Z,85.39
2022-10-15T18:40:18.308Z,85.07
2022-10-15T18:42:47.695Z,85.51
2022-10-15T18:45:14.554Z,85.19
2022-10-15T18:47:40.928Z,85.27
2022-10-15T18:50:07.636Z,84.95
2022-10-15T18:52:39.762Z,85.06
2022-10-15T18:55:07.459Z,85.32
2022-10-15T18:57:34.825Z,84.89
2022-10-15T19:00:01.358Z,85.00
2022-10-15T19:02:28.086Z,85.82
2022-10-15T19:04:54.664Z,86.33
2022-10-15T19:07:21.082Z,86.04
2022-10-15T19:09:47.468Z,85.48
2022-10-15T19:12:13.838Z,86.30
2022-10-15T19:14:40.217Z,85.97
2022-10-15T19:17:06.631Z,86.62
2022-10-15T19:19:33.262Z,86.69
2022-10-15T19:21:59.633Z,86.66
2022-10-15T19:24:26.024Z,86.39
2022-10-15T19:26:52.537Z,86.38
2022-10-15T19:29:19.424Z,86.40
2022-10-15T19:31:46.896Z,86.86
2022-10-15T19:34:13.387Z,87.08
2022-10-15T19:36:41.621Z,87.29
2022-10-15T19:39:12.525Z,87.55
2022-10-15T19:41:40.050Z,87.05
2022-10-15T19:44:08.228Z,87.42
2022-10-15T19:46:37.942Z,88.10
2022-10-15T19:49:05.266Z,87.92
2022-10-15T19:51:31.699Z,87.67
2022-10-15T19:54:00.244Z,87.21
2022-10-15T19:56:27.478Z,87.46
2022-10-15T19:58:54.835Z,89.87
2022-10-15T20:01:21.328Z,89.47
2022-10-15T20:03:47.707Z,89.60
2022-10-15T20:06:14.084Z,88.74
2022-10-15T20:08:40.537Z,88.30
2022-10-15T20:11:07.290Z,88.28
2022-10-15T20:13:34.208Z,88.17
2022-10-15T20:16:04.835Z,88.04
2022-10-15T20:18:32.152Z,88.13
2022-10-15T20:20:58.621Z,88.73
2022-10-15T20:23:26.520Z,88.94
2022-10-15T20:25:53.290Z,89.30
2022-10-15T20:28:20.157Z,89.23
2022-10-15T20:30:48.565Z,89.18
2022-10-15T20:33:15.013Z,89.16
2022-10-15T20:35:41.793Z,89.17
2022-10-15T20:38:08.198Z,89.37
2022-10-15T20:40:35.225Z,89.09
2022-10-15T20:43:01.580Z,89.11
2022-10-15T20:45:31.220Z,89.57
2022-10-15T20:47:58.083Z,89.39
2022-10-15T20:50:26.611Z,89.23
2022-10-15T20:52:54.108Z,89.88
2022-10-15T20:55:20.606Z,89.65
2022-10-15T20:57:47.022Z,90.08
2022-10-15T21:00:13.636Z,89.76
2022-10-15T21:02:40.039Z,89.97
2022-10-15T21:05:06.614Z,89.98
2022-10-15T21:07:33.115Z,90.07
2022-10-15T21:09:59.483Z,90.16
2022-10-15T21:12:26.197Z,90.61
2022-10-15T21:14:52.946Z,90.21
2022-10-15T21:17:19.598Z,90.53
2022-10-15T21:19:50.297Z,90.96
2022-10-15T21:22:19.292Z,91.14
2022-10-15T21:24:45.674Z,91.09
2022-10-15T21:27:12.039Z,90.81
2022-10-15T21:29:38.866Z,90.54
2022-10-15T21:32:05.294Z,90.49
2022-10-15T21:34:31.729Z,90.68
2022-10-15T21:36:58.212Z,90.85
2022-10-15T21:39:24.617Z,90.93
2022-10-15T21:41:51.023Z,90.71
2022-10-15T21:44:17.731Z,90.55
2022-10-15T21:46:44.157Z,90.65
2022-10-15T21:49:10.609Z,90.22
2022-10-15T21:51:37.519Z,90.76
2022-10-15T21:54:05.144Z,91.86
2022-10-15T21:56:32.162Z,91.72
2022-10-15T21:59:01.766Z,91.60
2022-10-15T22:01:31.019Z,92.12
2022-10-15T22:03:58.939Z,91.84
2022-10-15T22:06:25.360Z,92.24
2022-10-15T22:08:51.749Z,92.84
2022-10-15T22:11:19.991Z,93.33
2022-10-15T22:13:47.853Z,93.31
2022-10-15T22:16:15.779Z,95.17
2022-10-15T22:18:42.397Z,93.96
2022-10-15T22:21:10.395Z,93.74
2022-10-15T22:23:36.748Z,93.79
2022-10-15T22:26:03.127Z,94.23
2022-10-15T22:28:29.729Z,93.90
2022-10-15T22:30:56.164Z,93.57
2022-10-15T22:33:22.522Z,93.79
2022-10-15T22:35:48.917Z,93.49
2022-10-15T22:38:15.279Z,93.72
2022-10-15T22:40:41.658Z,94.07
2022-10-15T22:43:08.011Z,93.98
2022-10-15T22:45:34.405Z,93.62
2022-10-15T22:48:00.791Z,93.49
2022-10-15T22:50:27.169Z,93.24
2022-10-15T22:52:53.684Z,93.21
2022-10-15T22:55:20.073Z,93.13
2022-10-15T22:57:46.916Z,93.43
2022-10-15T23:00:13.646Z,93.52
2022-10-15T23:02:40.025Z,93.31
2022-10-15T23:05:06.536Z,93.74
2022-10-15T23:07:32.916Z,93.61
2022-10-15T23:09:59.280Z,93.73
2022-10-15T23:12:25.878Z,93.63
2022-10-15T23:14:52.993Z,93.27
2022-10-15T23:17:19.473Z,93.33
2022-10-15T23:19:45.928Z,93.01
2022-10-15T23:22:12.299Z,93.20
2022-10-15T23:24:38.699Z,93.20
2022-10-15T23:27:05.083Z,93.38
2022-10-15T23:29:31.472Z,93.83
2022-10-15T23:31:57.835Z,93.34
2022-10-15T23:34:25.159Z,93.64
2022-10-15T23:36:51.873Z,93.36
2022-10-15T23:39:19.567Z,93.20
2022-10-15T23:41:46.218Z,93.15
2022-10-15T23:44:13.133Z,93.20
2022-10-15T23:46:40.003Z,93.43
2022-10-15T23:49:06.394Z,93.31
2022-10-15T23:51:34.686Z,93.65
2022-10-15T23:54:01.966Z,93.73
2022-10-15T23:56:28.834Z,93.93
2022-10-15T23:58:58.731Z,93.79
